• Join FlightAware (Why Join?)
  • Login
  • US Flag 
12:57PM EST


 

Airport Tracker/Info


-or-


 

Live Flight TrackerFlight Track Log ✈ N4855T ✈ 23-Apr-2013 ✈ KDFW - KDTO

Flight Track Log - Related Links

Times and Time Zones

All times are in EDT time to prevent confusion due to time zone crossing. See the N4855T flight status page for this flight to view local times or setup timezone preferences in your user account.

Time Position Orientation Groundspeed Altitude Reporting Facility
EDT Latitude Longitude Course Direction KTS MPH feet Rate Location/Type
02:28AM 32.9352 -97.0319 North  Level Estimated
02:29AM 32.9748 -97.0257 North  Level Estimated
02:30AM 33.0145 -97.0194 North  Level Estimated
02:31AM 33.0549 -97.0117 North  Level FlightAware Approximate
02:32AM 33.0953 -97.0041 North  Level FlightAware Approximate
02:33AM 33.1358 -96.9976 North  Level Estimated
02:34AM 33.1762 -96.9894 10° North  Level FlightAware Approximate
02:35AM 33.2165 -96.9812 10° North  Level FlightAware Approximate
02:36AM 33.2568 -96.9729 10° North  Level FlightAware Approximate
02:37AM 33.2971 -96.9647 10° North  Level FlightAware Approximate
02:38AM 33.3375 -96.9564 10° North  Level FlightAware Approximate
02:39AM 33.3778 -96.9482 10° North  Level FlightAware Approximate
02:40AM 33.4181 -96.9399 10° North  Level FlightAware Approximate
02:41AM 33.4504 -96.9348 North  Level Estimated
02:42AM 33.4827 -96.9314 North  Level FlightAware Approximate
02:43AM 33.5151 -96.9281 North  Level FlightAware Approximate
02:44AM 33.5475 -96.9248 North  Level FlightAware Approximate
02:45AM 33.5799 -96.9215 North  Level FlightAware Approximate
02:46AM 33.6123 -96.9182 North  Level FlightAware Approximate
02:47AM 33.6447 -96.9149 North  Level FlightAware Approximate
02:48AM 33.6771 -96.9115 North  Level FlightAware Approximate
02:49AM 33.7095 -96.9082 North  Level FlightAware Approximate
02:50AM 33.7419 -96.9049 North  Level FlightAware Approximate
02:51AM 33.7738 -96.9016 North  Level FlightAware Approximate
02:52AM 33.8056 -96.8983 North  Level FlightAware Approximate
02:53AM 33.8375 -96.8950 North  Level FlightAware Approximate
02:54AM 33.8694 -96.8917 North  Level FlightAware Approximate
02:55AM 33.9013 -96.8885 North  Level FlightAware Approximate
02:56AM 33.9332 -96.8852 North  Level FlightAware Approximate
02:57AM 33.9651 -96.8819 North  Level FlightAware Approximate
02:58AM 33.9970 -96.8786 North  Level FlightAware Approximate
02:59AM 34.0289 -96.8753 North  Level FlightAware Approximate
03:00AM 34.0608 -96.8720 North  Level FlightAware Approximate
03:01AM 34.0927 -96.8687 North  Level FlightAware Approximate
03:02AM 34.0543 -96.8830 197° South  Level Estimated
03:03AM 34.0160 -96.8973 197° South  Level Estimated
03:04AM 33.9776 -96.9117 197° South  Level Estimated
03:05AM 33.9180 -96.9338 197° South  Level Estimated
03:06AM 33.8584 -96.9560 197° South  Level Estimated
03:07AM 33.7988 -96.9781 197° South  Level Estimated
03:08AM 33.7392 -97.0002 197° South  Level Estimated
03:09AM 33.6796 -97.0223 197° South  Level Estimated
03:10AM 33.6200 -97.0443 197° South  Level Estimated
03:11AM 33.5605 -97.0663 197° South  Level Estimated
03:12AM 33.5008 -97.0883 197° South  Level Estimated
03:12AM 32.5667 -97.2500 197° South 154 177 6,400  Level Dallas / Fort Worth TRACON
03:13AM 33.4412 -97.1102 197° South  Level Estimated
03:13AM 32.6167 -97.2333 16° North 165 190 6,000  Level Dallas / Fort Worth TRACON
03:14AM 33.3816 -97.1321 197° South  Level Estimated
03:14AM 32.6578 -97.2383 354° North 165 190 5,200  Level Fort Worth Center
03:15AM 33.3220 -97.1540 197° South  Level Estimated
03:15AM 32.7100 -97.2356 North 182 209 4,300  Level Fort Worth Center
03:16AM 33.2624 -97.1759 197° South  Level Estimated
03:16AM 32.7664 -97.2331 North 188 216 3,500  Level Fort Worth Center
03:17AM 33.2028 -97.1977 197° South  Level Estimated
03:18AM 32.8833 -97.2167 North 183 211 3,500  Level Dallas / Fort Worth TRACON
03:19AM 32.9333 -97.2167 360° North 184 212 3,500 -180 Level Dallas / Fort Worth TRACON
03:20AM 32.9833 -97.2167 360° North 192 221 3,200 -360 Descending Dallas / Fort Worth TRACON
03:21AM 33.0333 -97.2167 360° North 201 231 2,800 -420 Descending Dallas / Fort Worth TRACON
03:23AM 33.1169 -97.2047 North  Level FlightAware Approximate
03:30AM 33.2000 -97.1833 16° North  Level FlightAware Approximate
03:31AM 33.2021 -97.1980 16° North  Level Estimated
03:32AM 33.2021 -97.1980 16° North  Level Estimated
03:33AM 33.2021 -97.1980 16° North  Level Estimated
03:34AM 33.2021 -97.1980 16° North  Level Estimated
03:35AM 33.2021 -97.1980 16° North  Level Estimated
03:36AM 33.2021 -97.1980 16° North  Level Estimated
03:37AM 33.2021 -97.1980 16° North  Level Estimated
03:38AM 33.2021 -97.1980 16° North  Level Estimated
03:39AM 33.2021 -97.1980 16° North  Level Estimated
03:40AM 33.2021 -97.1980 16° North  Level Estimated
03:41AM 33.2021 -97.1980 16° North  Level Estimated
03:42AM 33.2021 -97.1980 16° North  Level Estimated